sensor_id;sensor_type;location;lat;lon;timestamp;P1;durP1;ratioP1;P2;durP2;ratioP2
12141;SDS011;6134;59.284;18.022;2022-08-04T00:01:43;5.20;;;3.50;;
12141;SDS011;6134;59.284;18.022;2022-08-04T00:04:13;3.85;;;3.40;;
12141;SDS011;6134;59.284;18.022;2022-08-04T00:06:47;4.45;;;3.05;;
12141;SDS011;6134;59.284;18.022;2022-08-04T00:09:20;6.50;;;3.60;;
12141;SDS011;6134;59.284;18.022;2022-08-04T00:11:52;5.15;;;3.10;;
12141;SDS011;6134;59.284;18.022;2022-08-04T00:14:23;6.78;;;3.50;;
12141;SDS011;6134;59.284;18.022;2022-08-04T00:16:52;5.90;;;3.35;;
12141;SDS011;6134;59.284;18.022;2022-08-04T00:19:22;5.70;;;3.20;;
12141;SDS011;6134;59.284;18.022;2022-08-04T00:21:58;8.85;;;3.25;;
12141;SDS011;6134;59.284;18.022;2022-08-04T00:24:27;4.55;;;3.03;;
12141;SDS011;6134;59.284;18.022;2022-08-04T00:26:56;6.88;;;3.85;;
12141;SDS011;6134;59.284;18.022;2022-08-04T00:29:26;6.60;;;3.20;;
12141;SDS011;6134;59.284;18.022;2022-08-04T00:31:54;5.82;;;3.33;;
12141;SDS011;6134;59.284;18.022;2022-08-04T00:34:24;6.90;;;3.08;;
12141;SDS011;6134;59.284;18.022;2022-08-04T00:36:53;8.77;;;3.55;;
12141;SDS011;6134;59.284;18.022;2022-08-04T00:39:24;6.10;;;3.28;;
12141;SDS011;6134;59.284;18.022;2022-08-04T00:42:00;5.10;;;3.30;;
12141;SDS011;6134;59.284;18.022;2022-08-04T00:44:36;6.35;;;3.75;;
12141;SDS011;6134;59.284;18.022;2022-08-04T00:47:09;8.07;;;4.47;;
12141;SDS011;6134;59.284;18.022;2022-08-04T00:49:48;5.32;;;2.97;;
12141;SDS011;6134;59.284;18.022;2022-08-04T00:52:27;5.07;;;2.72;;
12141;SDS011;6134;59.284;18.022;2022-08-04T00:55:15;4.93;;;3.05;;
12141;SDS011;6134;59.284;18.022;2022-08-04T00:57:51;5.05;;;3.35;;
12141;SDS011;6134;59.284;18.022;2022-08-04T01:00:22;4.25;;;2.65;;
12141;SDS011;6134;59.284;18.022;2022-08-04T01:02:56;7.50;;;3.45;;
12141;SDS011;6134;59.284;18.022;2022-08-04T01:05:29;4.53;;;2.50;;
12141;SDS011;6134;59.284;18.022;2022-08-04T01:08:17;3.85;;;3.00;;
12141;SDS011;6134;59.284;18.022;2022-08-04T01:10:54;8.05;;;3.88;;
12141;SDS011;6134;59.284;18.022;2022-08-04T01:13:31;3.80;;;3.40;;
12141;SDS011;6134;59.284;18.022;2022-08-04T01:16:02;6.40;;;3.42;;
12141;SDS011;6134;59.284;18.022;2022-08-04T01:18:35;5.65;;;3.45;;
12141;SDS011;6134;59.284;18.022;2022-08-04T01:21:26;4.25;;;3.22;;
12141;SDS011;6134;59.284;18.022;2022-08-04T01:24:06;5.80;;;3.00;;
12141;SDS011;6134;59.284;18.022;2022-08-04T01:26:49;5.75;;;3.17;;
12141;SDS011;6134;59.284;18.022;2022-08-04T01:29:25;7.75;;;3.13;;
12141;SDS011;6134;59.284;18.022;2022-08-04T01:32:14;4.15;;;2.85;;
12141;SDS011;6134;59.284;18.022;2022-08-04T01:34:46;4.70;;;3.42;;
12141;SDS011;6134;59.284;18.022;2022-08-04T01:37:21;4.55;;;3.40;;
12141;SDS011;6134;59.284;18.022;2022-08-04T01:39:57;4.53;;;3.35;;
12141;SDS011;6134;59.284;18.022;2022-08-04T01:42:27;5.28;;;3.15;;
12141;SDS011;6134;59.284;18.022;2022-08-04T01:45:01;4.35;;;3.55;;
12141;SDS011;6134;59.284;18.022;2022-08-04T01:47:31;6.47;;;3.60;;
12141;SDS011;6134;59.284;18.022;2022-08-04T01:50:03;3.65;;;2.92;;
12141;SDS011;6134;59.284;18.022;2022-08-04T01:52:32;3.60;;;3.17;;
12141;SDS011;6134;59.284;18.022;2022-08-04T01:55:02;7.28;;;3.40;;
12141;SDS011;6134;59.284;18.022;2022-08-04T01:57:32;7.15;;;3.38;;
12141;SDS011;6134;59.284;18.022;2022-08-04T02:00:06;3.97;;;3.40;;
12141;SDS011;6134;59.284;18.022;2022-08-04T02:02:35;8.10;;;3.78;;
12141;SDS011;6134;59.284;18.022;2022-08-04T02:05:03;5.30;;;3.97;;
12141;SDS011;6134;59.284;18.022;2022-08-04T02:07:45;7.53;;;3.05;;
12141;SDS011;6134;59.284;18.022;2022-08-04T02:10:17;4.40;;;3.50;;
12141;SDS011;6134;59.284;18.022;2022-08-04T02:12:54;10.77;;;3.15;;
12141;SDS011;6134;59.284;18.022;2022-08-04T02:15:27;4.00;;;3.42;;
12141;SDS011;6134;59.284;18.022;2022-08-04T02:18:02;4.55;;;3.10;;
12141;SDS011;6134;59.284;18.022;2022-08-04T02:20:32;3.28;;;2.70;;
12141;SDS011;6134;59.284;18.022;2022-08-04T02:23:03;4.75;;;3.40;;
12141;SDS011;6134;59.284;18.022;2022-08-04T02:25:33;5.13;;;3.50;;
12141;SDS011;6134;59.284;18.022;2022-08-04T02:28:11;4.40;;;3.00;;
12141;SDS011;6134;59.284;18.022;2022-08-04T02:30:42;5.65;;;3.25;;
12141;SDS011;6134;59.284;18.022;2022-08-04T02:33:13;3.42;;;3.10;;
12141;SDS011;6134;59.284;18.022;2022-08-04T02:35:43;4.55;;;3.33;;
12141;SDS011;6134;59.284;18.022;2022-08-04T02:38:17;3.47;;;3.17;;
12141;SDS011;6134;59.284;18.022;2022-08-04T02:40:51;4.53;;;2.97;;
12141;SDS011;6134;59.284;18.022;2022-08-04T02:43:25;5.72;;;3.65;;
12141;SDS011;6134;59.284;18.022;2022-08-04T02:46:17;4.90;;;3.20;;
12141;SDS011;6134;59.284;18.022;2022-08-04T02:48:46;3.97;;;3.10;;
12141;SDS011;6134;59.284;18.022;2022-08-04T02:51:19;4.40;;;3.35;;
12141;SDS011;6134;59.284;18.022;2022-08-04T02:53:49;3.45;;;3.15;;
12141;SDS011;6134;59.284;18.022;2022-08-04T02:56:20;4.72;;;3.28;;
12141;SDS011;6134;59.284;18.022;2022-08-04T02:58:51;6.47;;;3.22;;
12141;SDS011;6134;59.284;18.022;2022-08-04T03:01:21;5.22;;;3.50;;
12141;SDS011;6134;59.284;18.022;2022-08-04T03:03:52;7.10;;;3.60;;
12141;SDS011;6134;59.284;18.022;2022-08-04T03:06:51;3.97;;;3.28;;
12141;SDS011;6134;59.284;18.022;2022-08-04T03:09:38;6.72;;;3.47;;
12141;SDS011;6134;59.284;18.022;2022-08-04T03:17:43;4.00;;;3.10;;
12141;SDS011;6134;59.284;18.022;2022-08-04T03:23:14;5.30;;;3.28;;
12141;SDS011;6134;59.284;18.022;2022-08-04T03:28:46;5.57;;;2.90;;
12141;SDS011;6134;59.284;18.022;2022-08-04T03:31:25;4.63;;;2.63;;
12141;SDS011;6134;59.284;18.022;2022-08-04T03:34:01;3.22;;;2.78;;
12141;SDS011;6134;59.284;18.022;2022-08-04T03:36:37;4.95;;;3.55;;
12141;SDS011;6134;59.284;18.022;2022-08-04T03:42:04;5.45;;;2.78;;
12141;SDS011;6134;59.284;18.022;2022-08-04T03:44:52;5.10;;;2.97;;
12141;SDS011;6134;59.284;18.022;2022-08-04T03:47:46;4.47;;;2.85;;
12141;SDS011;6134;59.284;18.022;2022-08-04T03:50:29;3.78;;;2.90;;
12141;SDS011;6134;59.284;18.022;2022-08-04T03:53:21;4.85;;;2.80;;
12141;SDS011;6134;59.284;18.022;2022-08-04T03:56:04;4.93;;;3.03;;
12141;SDS011;6134;59.284;18.022;2022-08-04T03:58:47;7.95;;;2.90;;
12141;SDS011;6134;59.284;18.022;2022-08-04T04:01:29;6.45;;;2.90;;
12141;SDS011;6134;59.284;18.022;2022-08-04T04:04:28;4.22;;;2.95;;
12141;SDS011;6134;59.284;18.022;2022-08-04T04:07:09;3.53;;;2.80;;
12141;SDS011;6134;59.284;18.022;2022-08-04T04:09:49;5.20;;;2.80;;
12141;SDS011;6134;59.284;18.022;2022-08-04T04:12:47;5.68;;;2.85;;
12141;SDS011;6134;59.284;18.022;2022-08-04T04:15:24;4.38;;;2.88;;
12141;SDS011;6134;59.284;18.022;2022-08-04T04:18:04;4.63;;;2.45;;
12141;SDS011;6134;59.284;18.022;2022-08-04T04:20:55;3.92;;;2.58;;
12141;SDS011;6134;59.284;18.022;2022-08-04T04:23:31;4.95;;;2.92;;
12141;SDS011;6134;59.284;18.022;2022-08-04T04:26:15;4.22;;;3.15;;
12141;SDS011;6134;59.284;18.022;2022-08-04T04:28:57;5.18;;;2.40;;
12141;SDS011;6134;59.284;18.022;2022-08-04T04:31:32;7.00;;;2.90;;
12141;SDS011;6134;59.284;18.022;2022-08-04T04:34:07;3.53;;;2.38;;
12141;SDS011;6134;59.284;18.022;2022-08-04T04:36:37;3.40;;;2.33;;
12141;SDS011;6134;59.284;18.022;2022-08-04T04:39:13;5.85;;;2.60;;
12141;SDS011;6134;59.284;18.022;2022-08-04T04:41:52;4.85;;;2.85;;
12141;SDS011;6134;59.284;18.022;2022-08-04T04:47:20;4.78;;;2.67;;
12141;SDS011;6134;59.284;18.022;2022-08-04T04:50:11;4.82;;;2.40;;
12141;SDS011;6134;59.284;18.022;2022-08-04T04:52:44;7.63;;;2.40;;
12141;SDS011;6134;59.284;18.022;2022-08-04T04:55:16;3.70;;;2.58;;
12141;SDS011;6134;59.284;18.022;2022-08-04T04:57:47;5.05;;;2.35;;
12141;SDS011;6134;59.284;18.022;2022-08-04T05:00:20;2.30;;;1.95;;
12141;SDS011;6134;59.284;18.022;2022-08-04T05:02:58;4.88;;;2.45;;
12141;SDS011;6134;59.284;18.022;2022-08-04T05:14:05;4.43;;;2.60;;
12141;SDS011;6134;59.284;18.022;2022-08-04T05:16:57;6.13;;;2.72;;
12141;SDS011;6134;59.284;18.022;2022-08-04T05:19:29;3.67;;;2.70;;
12141;SDS011;6134;59.284;18.022;2022-08-04T05:22:01;6.38;;;2.60;;
12141;SDS011;6134;59.284;18.022;2022-08-04T05:24:32;4.72;;;2.97;;
12141;SDS011;6134;59.284;18.022;2022-08-04T05:27:04;4.35;;;2.60;;
12141;SDS011;6134;59.284;18.022;2022-08-04T05:29:37;3.38;;;2.35;;
12141;SDS011;6134;59.284;18.022;2022-08-04T05:32:12;3.63;;;2.60;;
12141;SDS011;6134;59.284;18.022;2022-08-04T05:34:42;6.93;;;2.38;;
12141;SDS011;6134;59.284;18.022;2022-08-04T05:37:14;7.30;;;3.08;;
12141;SDS011;6134;59.284;18.022;2022-08-04T05:39:44;6.10;;;2.50;;
12141;SDS011;6134;59.284;18.022;2022-08-04T05:42:13;5.20;;;2.40;;
12141;SDS011;6134;59.284;18.022;2022-08-04T05:44:44;3.53;;;2.30;;
12141;SDS011;6134;59.284;18.022;2022-08-04T05:47:16;5.22;;;2.30;;
12141;SDS011;6134;59.284;18.022;2022-08-04T05:49:47;5.55;;;2.70;;
12141;SDS011;6134;59.284;18.022;2022-08-04T05:52:27;2.60;;;2.38;;
12141;SDS011;6134;59.284;18.022;2022-08-04T05:54:56;3.40;;;2.25;;
12141;SDS011;6134;59.284;18.022;2022-08-04T05:57:25;6.10;;;2.67;;
12141;SDS011;6134;59.284;18.022;2022-08-04T05:59:56;3.53;;;2.53;;
12141;SDS011;6134;59.284;18.022;2022-08-04T06:02:26;5.68;;;2.58;;
12141;SDS011;6134;59.284;18.022;2022-08-04T06:04:55;6.70;;;2.50;;
12141;SDS011;6134;59.284;18.022;2022-08-04T06:07:25;4.30;;;2.50;;
12141;SDS011;6134;59.284;18.022;2022-08-04T06:09:53;5.05;;;2.58;;
12141;SDS011;6134;59.284;18.022;2022-08-04T06:12:24;4.32;;;2.70;;
12141;SDS011;6134;59.284;18.022;2022-08-04T06:14:53;4.20;;;2.25;;
12141;SDS011;6134;59.284;18.022;2022-08-04T06:17:27;4.35;;;2.42;;
12141;SDS011;6134;59.284;18.022;2022-08-04T06:20:17;4.30;;;2.13;;
12141;SDS011;6134;59.284;18.022;2022-08-04T06:22:49;5.78;;;2.15;;
12141;SDS011;6134;59.284;18.022;2022-08-04T06:25:21;3.85;;;2.20;;
12141;SDS011;6134;59.284;18.022;2022-08-04T06:27:51;4.65;;;2.25;;
12141;SDS011;6134;59.284;18.022;2022-08-04T06:30:19;3.13;;;2.13;;
12141;SDS011;6134;59.284;18.022;2022-08-04T06:32:53;3.20;;;1.88;;
12141;SDS011;6134;59.284;18.022;2022-08-04T06:35:30;3.53;;;2.03;;
12141;SDS011;6134;59.284;18.022;2022-08-04T06:37:59;5.88;;;2.03;;
12141;SDS011;6134;59.284;18.022;2022-08-04T06:40:28;4.50;;;2.08;;
12141;SDS011;6134;59.284;18.022;2022-08-04T06:42:59;4.15;;;2.17;;
12141;SDS011;6134;59.284;18.022;2022-08-04T06:45:28;3.47;;;1.80;;
12141;SDS011;6134;59.284;18.022;2022-08-04T06:48:01;4.88;;;2.58;;
12141;SDS011;6134;59.284;18.022;2022-08-04T06:50:30;3.03;;;1.85;;
12141;SDS011;6134;59.284;18.022;2022-08-04T06:53:19;4.68;;;2.10;;
12141;SDS011;6134;59.284;18.022;2022-08-04T06:55:48;3.90;;;1.77;;
12141;SDS011;6134;59.284;18.022;2022-08-04T06:58:18;3.45;;;1.88;;
12141;SDS011;6134;59.284;18.022;2022-08-04T07:00:47;3.28;;;1.83;;
12141;SDS011;6134;59.284;18.022;2022-08-04T07:03:18;4.68;;;2.25;;
12141;SDS011;6134;59.284;18.022;2022-08-04T07:05:48;4.25;;;1.90;;
12141;SDS011;6134;59.284;18.022;2022-08-04T07:08:16;3.80;;;1.85;;
12141;SDS011;6134;59.284;18.022;2022-08-04T07:10:45;5.10;;;1.70;;
12141;SDS011;6134;59.284;18.022;2022-08-04T07:13:14;3.08;;;2.08;;
12141;SDS011;6134;59.284;18.022;2022-08-04T07:15:44;5.68;;;1.98;;
12141;SDS011;6134;59.284;18.022;2022-08-04T07:18:13;2.55;;;1.73;;
12141;SDS011;6134;59.284;18.022;2022-08-04T07:20:43;1.83;;;1.60;;
12141;SDS011;6134;59.284;18.022;2022-08-04T07:23:12;2.65;;;1.50;;
12141;SDS011;6134;59.284;18.022;2022-08-04T07:25:49;2.63;;;1.50;;
12141;SDS011;6134;59.284;18.022;2022-08-04T07:28:38;2.80;;;1.60;;
12141;SDS011;6134;59.284;18.022;2022-08-04T07:31:08;2.97;;;1.80;;
12141;SDS011;6134;59.284;18.022;2022-08-04T07:33:57;3.95;;;2.22;;
12141;SDS011;6134;59.284;18.022;2022-08-04T07:36:47;5.97;;;2.03;;
12141;SDS011;6134;59.284;18.022;2022-08-04T07:39:18;2.88;;;1.77;;
12141;SDS011;6134;59.284;18.022;2022-08-04T07:41:55;4.50;;;2.03;;
12141;SDS011;6134;59.284;18.022;2022-08-04T07:44:24;2.53;;;1.80;;
12141;SDS011;6134;59.284;18.022;2022-08-04T07:46:52;6.07;;;1.90;;
12141;SDS011;6134;59.284;18.022;2022-08-04T07:49:21;4.78;;;1.80;;
12141;SDS011;6134;59.284;18.022;2022-08-04T07:52:13;3.30;;;1.83;;
12141;SDS011;6134;59.284;18.022;2022-08-04T07:54:42;2.58;;;1.73;;
12141;SDS011;6134;59.284;18.022;2022-08-04T07:57:11;3.05;;;1.83;;
12141;SDS011;6134;59.284;18.022;2022-08-04T08:00:00;3.13;;;1.70;;
12141;SDS011;6134;59.284;18.022;2022-08-04T08:02:29;2.50;;;1.50;;
12141;SDS011;6134;59.284;18.022;2022-08-04T08:04:58;2.70;;;2.00;;
12141;SDS011;6134;59.284;18.022;2022-08-04T08:07:28;2.88;;;1.55;;
12141;SDS011;6134;59.284;18.022;2022-08-04T08:09:56;2.13;;;1.70;;
12141;SDS011;6134;59.284;18.022;2022-08-04T08:12:25;2.17;;;1.85;;
12141;SDS011;6134;59.284;18.022;2022-08-04T08:15:14;1.60;;;1.50;;
12141;SDS011;6134;59.284;18.022;2022-08-04T08:17:42;3.78;;;1.38;;
12141;SDS011;6134;59.284;18.022;2022-08-04T08:20:24;3.17;;;1.70;;
12141;SDS011;6134;59.284;18.022;2022-08-04T08:22:58;3.08;;;1.70;;
12141;SDS011;6134;59.284;18.022;2022-08-04T08:25:28;2.30;;;1.92;;
12141;SDS011;6134;59.284;18.022;2022-08-04T08:27:56;4.13;;;1.58;;
12141;SDS011;6134;59.284;18.022;2022-08-04T08:30:25;2.75;;;1.83;;
12141;SDS011;6134;59.284;18.022;2022-08-04T08:32:57;4.03;;;1.60;;
12141;SDS011;6134;59.284;18.022;2022-08-04T08:35:27;3.28;;;1.88;;
12141;SDS011;6134;59.284;18.022;2022-08-04T08:38:16;2.35;;;1.50;;
12141;SDS011;6134;59.284;18.022;2022-08-04T08:40:47;3.53;;;1.77;;
12141;SDS011;6134;59.284;18.022;2022-08-04T08:43:28;1.90;;;1.58;;
12141;SDS011;6134;59.284;18.022;2022-08-04T08:46:34;4.88;;;1.60;;
12141;SDS011;6134;59.284;18.022;2022-08-04T08:49:26;2.33;;;1.45;;
12141;SDS011;6134;59.284;18.022;2022-08-04T08:52:24;2.78;;;1.77;;
12141;SDS011;6134;59.284;18.022;2022-08-04T08:55:22;3.13;;;1.70;;
12141;SDS011;6134;59.284;18.022;2022-08-04T08:58:04;2.00;;;1.80;;
12141;SDS011;6134;59.284;18.022;2022-08-04T09:00:40;1.60;;;1.50;;
12141;SDS011;6134;59.284;18.022;2022-08-04T09:03:24;2.22;;;1.60;;
12141;SDS011;6134;59.284;18.022;2022-08-04T09:06:01;2.00;;;1.40;;
12141;SDS011;6134;59.284;18.022;2022-08-04T09:08:39;1.52;;;1.38;;
12141;SDS011;6134;59.284;18.022;2022-08-04T09:11:15;2.35;;;1.40;;
12141;SDS011;6134;59.284;18.022;2022-08-04T09:13:47;3.47;;;1.50;;
12141;SDS011;6134;59.284;18.022;2022-08-04T09:16:18;1.95;;;1.35;;
12141;SDS011;6134;59.284;18.022;2022-08-04T09:18:51;2.47;;;1.30;;
12141;SDS011;6134;59.284;18.022;2022-08-04T09:21:25;1.70;;;1.60;;
12141;SDS011;6134;59.284;18.022;2022-08-04T09:23:59;2.20;;;1.70;;
12141;SDS011;6134;59.284;18.022;2022-08-04T09:26:52;2.40;;;1.52;;
12141;SDS011;6134;59.284;18.022;2022-08-04T09:29:27;2.22;;;1.40;;
12141;SDS011;6134;59.284;18.022;2022-08-04T09:32:00;2.28;;;1.50;;
12141;SDS011;6134;59.284;18.022;2022-08-04T09:34:35;2.33;;;1.42;;
12141;SDS011;6134;59.284;18.022;2022-08-04T09:37:08;1.65;;;1.48;;
12141;SDS011;6134;59.284;18.022;2022-08-04T09:39:41;3.03;;;1.73;;
12141;SDS011;6134;59.284;18.022;2022-08-04T09:42:22;5.03;;;1.67;;
12141;SDS011;6134;59.284;18.022;2022-08-04T09:44:57;2.72;;;1.42;;
12141;SDS011;6134;59.284;18.022;2022-08-04T09:47:33;2.95;;;1.38;;
12141;SDS011;6134;59.284;18.022;2022-08-04T09:50:14;2.00;;;1.40;;
12141;SDS011;6134;59.284;18.022;2022-08-04T09:52:46;1.67;;;1.40;;
12141;SDS011;6134;59.284;18.022;2022-08-04T09:55:17;1.52;;;1.30;;
12141;SDS011;6134;59.284;18.022;2022-08-04T09:57:52;3.38;;;1.35;;
12141;SDS011;6134;59.284;18.022;2022-08-04T10:00:23;2.15;;;1.48;;
12141;SDS011;6134;59.284;18.022;2022-08-04T10:03:06;2.45;;;1.60;;
12141;SDS011;6134;59.284;18.022;2022-08-04T10:05:48;2.55;;;1.60;;
12141;SDS011;6134;59.284;18.022;2022-08-04T10:08:22;2.85;;;1.50;;
12141;SDS011;6134;59.284;18.022;2022-08-04T10:10:55;2.85;;;1.50;;
12141;SDS011;6134;59.284;18.022;2022-08-04T10:13:32;4.28;;;1.70;;
12141;SDS011;6134;59.284;18.022;2022-08-04T10:16:10;3.20;;;1.52;;
12141;SDS011;6134;59.284;18.022;2022-08-04T10:18:49;4.10;;;1.58;;
12141;SDS011;6134;59.284;18.022;2022-08-04T10:21:34;1.77;;;1.30;;
12141;SDS011;6134;59.284;18.022;2022-08-04T10:24:34;1.60;;;1.35;;
12141;SDS011;6134;59.284;18.022;2022-08-04T10:27:04;2.08;;;1.58;;
12141;SDS011;6134;59.284;18.022;2022-08-04T10:29:40;1.67;;;1.40;;
12141;SDS011;6134;59.284;18.022;2022-08-04T10:32:12;3.17;;;1.30;;
12141;SDS011;6134;59.284;18.022;2022-08-04T10:34:42;2.05;;;1.30;;
12141;SDS011;6134;59.284;18.022;2022-08-04T10:37:17;2.50;;;1.67;;
12141;SDS011;6134;59.284;18.022;2022-08-04T10:40:09;3.25;;;1.60;;
12141;SDS011;6134;59.284;18.022;2022-08-04T10:42:57;2.80;;;1.35;;
12141;SDS011;6134;59.284;18.022;2022-08-04T10:45:31;2.28;;;1.60;;
12141;SDS011;6134;59.284;18.022;2022-08-04T10:48:06;3.67;;;1.77;;
12141;SDS011;6134;59.284;18.022;2022-08-04T10:50:39;1.30;;;1.20;;
12141;SDS011;6134;59.284;18.022;2022-08-04T10:53:12;2.55;;;1.50;;
12141;SDS011;6134;59.284;18.022;2022-08-04T10:55:45;3.10;;;1.60;;
12141;SDS011;6134;59.284;18.022;2022-08-04T10:58:35;2.63;;;1.58;;
12141;SDS011;6134;59.284;18.022;2022-08-04T11:01:16;2.22;;;1.52;;
12141;SDS011;6134;59.284;18.022;2022-08-04T11:04:09;2.28;;;1.65;;
12141;SDS011;6134;59.284;18.022;2022-08-04T11:06:52;3.20;;;1.55;;
12141;SDS011;6134;59.284;18.022;2022-08-04T11:09:21;2.22;;;1.23;;
12141;SDS011;6134;59.284;18.022;2022-08-04T11:11:51;1.52;;;1.35;;
12141;SDS011;6134;59.284;18.022;2022-08-04T11:14:28;2.13;;;1.40;;
12141;SDS011;6134;59.284;18.022;2022-08-04T11:17:02;1.45;;;1.30;;
12141;SDS011;6134;59.284;18.022;2022-08-04T11:19:33;2.40;;;1.40;;
12141;SDS011;6134;59.284;18.022;2022-08-04T11:22:13;2.53;;;1.90;;
12141;SDS011;6134;59.284;18.022;2022-08-04T11:24:43;1.95;;;1.50;;
12141;SDS011;6134;59.284;18.022;2022-08-04T11:27:13;1.73;;;1.20;;
12141;SDS011;6134;59.284;18.022;2022-08-04T11:29:45;3.28;;;1.45;;
12141;SDS011;6134;59.284;18.022;2022-08-04T11:32:20;1.65;;;1.40;;
12141;SDS011;6134;59.284;18.022;2022-08-04T11:34:51;2.42;;;1.60;;
12141;SDS011;6134;59.284;18.022;2022-08-04T11:37:26;2.38;;;1.52;;
12141;SDS011;6134;59.284;18.022;2022-08-04T11:39:57;4.30;;;1.77;;
12141;SDS011;6134;59.284;18.022;2022-08-04T11:42:27;3.60;;;2.00;;
12141;SDS011;6134;59.284;18.022;2022-08-04T11:44:58;2.28;;;1.60;;
12141;SDS011;6134;59.284;18.022;2022-08-04T11:47:31;2.67;;;1.50;;
12141;SDS011;6134;59.284;18.022;2022-08-04T11:50:05;3.33;;;1.77;;
12141;SDS011;6134;59.284;18.022;2022-08-04T11:52:37;3.00;;;1.67;;
12141;SDS011;6134;59.284;18.022;2022-08-04T11:55:06;3.30;;;1.60;;
12141;SDS011;6134;59.284;18.022;2022-08-04T11:57:36;1.85;;;1.65;;
12141;SDS011;6134;59.284;18.022;2022-08-04T12:00:06;2.45;;;1.30;;
12141;SDS011;6134;59.284;18.022;2022-08-04T12:02:55;1.65;;;1.40;;
12141;SDS011;6134;59.284;18.022;2022-08-04T12:05:29;2.53;;;1.50;;
12141;SDS011;6134;59.284;18.022;2022-08-04T12:08:09;3.58;;;1.73;;
12141;SDS011;6134;59.284;18.022;2022-08-04T12:10:40;1.83;;;1.58;;
12141;SDS011;6134;59.284;18.022;2022-08-04T12:13:11;2.97;;;1.50;;
12141;SDS011;6134;59.284;18.022;2022-08-04T12:15:45;3.95;;;1.80;;
12141;SDS011;6134;59.284;18.022;2022-08-04T12:18:18;1.73;;;1.40;;
12141;SDS011;6134;59.284;18.022;2022-08-04T12:20:51;2.38;;;1.52;;
12141;SDS011;6134;59.284;18.022;2022-08-04T12:23:25;2.88;;;1.40;;
12141;SDS011;6134;59.284;18.022;2022-08-04T12:25:57;3.60;;;1.58;;
12141;SDS011;6134;59.284;18.022;2022-08-04T12:28:28;2.10;;;1.30;;
12141;SDS011;6134;59.284;18.022;2022-08-04T12:31:19;1.30;;;1.20;;
12141;SDS011;6134;59.284;18.022;2022-08-04T12:33:52;3.63;;;1.60;;
12141;SDS011;6134;59.284;18.022;2022-08-04T12:36:32;2.63;;;1.60;;
12141;SDS011;6134;59.284;18.022;2022-08-04T12:39:05;1.60;;;1.27;;
12141;SDS011;6134;59.284;18.022;2022-08-04T12:41:38;3.05;;;1.20;;
12141;SDS011;6134;59.284;18.022;2022-08-04T12:44:09;2.40;;;1.38;;
12141;SDS011;6134;59.284;18.022;2022-08-04T12:46:59;3.42;;;1.35;;
12141;SDS011;6134;59.284;18.022;2022-08-04T12:49:50;3.67;;;1.50;;
12141;SDS011;6134;59.284;18.022;2022-08-04T12:52:27;1.70;;;1.45;;
12141;SDS011;6134;59.284;18.022;2022-08-04T12:55:16;1.48;;;1.30;;
12141;SDS011;6134;59.284;18.022;2022-08-04T12:57:46;2.13;;;1.50;;
12141;SDS011;6134;59.284;18.022;2022-08-04T13:00:23;1.70;;;1.30;;
12141;SDS011;6134;59.284;18.022;2022-08-04T13:02:59;5.63;;;1.60;;
12141;SDS011;6134;59.284;18.022;2022-08-04T13:05:37;2.00;;;1.60;;
12141;SDS011;6134;59.284;18.022;2022-08-04T13:08:06;1.60;;;1.45;;
12141;SDS011;6134;59.284;18.022;2022-08-04T13:10:36;2.55;;;1.60;;
12141;SDS011;6134;59.284;18.022;2022-08-04T13:13:05;2.53;;;1.40;;
12141;SDS011;6134;59.284;18.022;2022-08-04T13:15:38;1.25;;;1.15;;
12141;SDS011;6134;59.284;18.022;2022-08-04T13:18:21;2.08;;;1.38;;
12141;SDS011;6134;59.284;18.022;2022-08-04T13:20:57;1.85;;;1.58;;
12141;SDS011;6134;59.284;18.022;2022-08-04T13:23:48;2.00;;;1.50;;
12141;SDS011;6134;59.284;18.022;2022-08-04T13:26:37;1.92;;;1.45;;
12141;SDS011;6134;59.284;18.022;2022-08-04T13:29:21;3.03;;;1.80;;
12141;SDS011;6134;59.284;18.022;2022-08-04T13:32:10;1.55;;;1.42;;
12141;SDS011;6134;59.284;18.022;2022-08-04T13:34:42;4.55;;;1.45;;
12141;SDS011;6134;59.284;18.022;2022-08-04T13:37:19;1.83;;;1.55;;
12141;SDS011;6134;59.284;18.022;2022-08-04T13:39:49;3.45;;;2.00;;
12141;SDS011;6134;59.284;18.022;2022-08-04T13:42:21;4.30;;;1.65;;
12141;SDS011;6134;59.284;18.022;2022-08-04T13:44:52;2.63;;;1.55;;
12141;SDS011;6134;59.284;18.022;2022-08-04T13:47:24;2.58;;;1.40;;
12141;SDS011;6134;59.284;18.022;2022-08-04T13:50:11;2.45;;;1.60;;
12141;SDS011;6134;59.284;18.022;2022-08-04T13:52:42;1.60;;;1.50;;
12141;SDS011;6134;59.284;18.022;2022-08-04T13:55:21;2.83;;;1.60;;
12141;SDS011;6134;59.284;18.022;2022-08-04T13:57:53;1.98;;;1.70;;
12141;SDS011;6134;59.284;18.022;2022-08-04T14:00:22;1.70;;;1.60;;
12141;SDS011;6134;59.284;18.022;2022-08-04T14:02:59;2.83;;;1.52;;
12141;SDS011;6134;59.284;18.022;2022-08-04T14:05:29;5.43;;;1.88;;
12141;SDS011;6134;59.284;18.022;2022-08-04T14:08:20;2.13;;;1.65;;
12141;SDS011;6134;59.284;18.022;2022-08-04T14:10:54;3.83;;;1.75;;
12141;SDS011;6134;59.284;18.022;2022-08-04T14:13:27;1.80;;;1.65;;
12141;SDS011;6134;59.284;18.022;2022-08-04T14:16:13;1.90;;;1.55;;
12141;SDS011;6134;59.284;18.022;2022-08-04T14:18:42;3.47;;;2.20;;
12141;SDS011;6134;59.284;18.022;2022-08-04T14:21:11;3.00;;;2.10;;
12141;SDS011;6134;59.284;18.022;2022-08-04T14:23:46;2.50;;;1.77;;
12141;SDS011;6134;59.284;18.022;2022-08-04T14:26:17;3.65;;;1.65;;
12141;SDS011;6134;59.284;18.022;2022-08-04T14:29:05;5.00;;;2.10;;
12141;SDS011;6134;59.284;18.022;2022-08-04T14:31:58;2.53;;;1.77;;
12141;SDS011;6134;59.284;18.022;2022-08-04T14:34:29;1.88;;;1.73;;
12141;SDS011;6134;59.284;18.022;2022-08-04T14:37:05;3.95;;;2.20;;
12141;SDS011;6134;59.284;18.022;2022-08-04T14:39:45;2.85;;;1.90;;
12141;SDS011;6134;59.284;18.022;2022-08-04T14:42:41;2.50;;;1.77;;
12141;SDS011;6134;59.284;18.022;2022-08-04T14:45:28;2.95;;;1.70;;
12141;SDS011;6134;59.284;18.022;2022-08-04T14:47:57;2.15;;;1.55;;
12141;SDS011;6134;59.284;18.022;2022-08-04T14:50:36;2.33;;;1.98;;
12141;SDS011;6134;59.284;18.022;2022-08-04T14:53:06;5.07;;;1.90;;
12141;SDS011;6134;59.284;18.022;2022-08-04T14:55:36;2.20;;;1.70;;
12141;SDS011;6134;59.284;18.022;2022-08-04T14:58:05;3.25;;;1.77;;
12141;SDS011;6134;59.284;18.022;2022-08-04T15:00:54;5.13;;;1.80;;
12141;SDS011;6134;59.284;18.022;2022-08-04T15:03:23;3.03;;;2.08;;
12141;SDS011;6134;59.284;18.022;2022-08-04T15:05:52;2.92;;;1.70;;
12141;SDS011;6134;59.284;18.022;2022-08-04T15:08:32;1.98;;;1.60;;
12141;SDS011;6134;59.284;18.022;2022-08-04T15:11:02;3.08;;;1.70;;
12141;SDS011;6134;59.284;18.022;2022-08-04T15:13:31;1.85;;;1.75;;
12141;SDS011;6134;59.284;18.022;2022-08-04T15:16:00;1.92;;;1.50;;
12141;SDS011;6134;59.284;18.022;2022-08-04T15:18:33;4.57;;;2.10;;
12141;SDS011;6134;59.284;18.022;2022-08-04T15:21:02;2.58;;;1.70;;
12141;SDS011;6134;59.284;18.022;2022-08-04T15:23:31;3.35;;;1.60;;
12141;SDS011;6134;59.284;18.022;2022-08-04T15:26:08;2.40;;;1.50;;
12141;SDS011;6134;59.284;18.022;2022-08-04T15:28:37;2.25;;;1.58;;
12141;SDS011;6134;59.284;18.022;2022-08-04T15:31:07;3.22;;;1.70;;
12141;SDS011;6134;59.284;18.022;2022-08-04T15:33:56;2.15;;;1.60;;
12141;SDS011;6134;59.284;18.022;2022-08-04T15:36:26;2.00;;;1.60;;
12141;SDS011;6134;59.284;18.022;2022-08-04T15:39:00;2.42;;;1.67;;
12141;SDS011;6134;59.284;18.022;2022-08-04T15:41:36;2.42;;;1.63;;
12141;SDS011;6134;59.284;18.022;2022-08-04T15:44:26;2.83;;;1.50;;
12141;SDS011;6134;59.284;18.022;2022-08-04T15:47:11;1.90;;;1.55;;
12141;SDS011;6134;59.284;18.022;2022-08-04T15:49:40;2.65;;;1.30;;
12141;SDS011;6134;59.284;18.022;2022-08-04T15:52:10;6.60;;;1.67;;
12141;SDS011;6134;59.284;18.022;2022-08-04T15:54:40;1.92;;;1.65;;
12141;SDS011;6134;59.284;18.022;2022-08-04T15:57:24;2.17;;;1.67;;
12141;SDS011;6134;59.284;18.022;2022-08-04T16:00:12;1.35;;;1.25;;
12141;SDS011;6134;59.284;18.022;2022-08-04T16:02:41;1.38;;;1.27;;
12141;SDS011;6134;59.284;18.022;2022-08-04T16:05:32;1.88;;;1.58;;